Time;durP1;ratioP1;P1;durP2;ratioP2;P2;SDS_P1;SDS_P2;PMS_P1;PMS_P2;Temp;Humidity;BMP_temperature;BMP_pressure;BME280_temperature;BME280_humidity;BME280_pressure;Samples;Min_cycle;Max_cycle;Signal;HPM_P1;HPM_P2
2022/07/08 00:02:09;;;;;;;6.57;1.40;;;;;;;;;;5036808;28;20106;-70
2022/07/08 00:04:34;;;;;;;8.20;1.60;;;;;;;;;;5037099;28;20109;-69
2022/07/08 00:07:00;;;;;;;7.28;1.58;;;;;;;;;;5019289;28;20029;-70
2022/07/08 00:09:28;;;;;;;10.07;1.80;;;;;;;;;;5037201;28;20047;-68
2022/07/08 00:11:55;;;;;;;8.25;1.90;;;;;;;;;;5036841;28;20078;-69
2022/07/08 00:14:21;;;;;;;9.63;1.75;;;;;;;;;;5036805;28;20459;-68
2022/07/08 00:16:46;;;;;;;8.52;1.73;;;;;;;;;;5036646;28;20116;-69
2022/07/08 00:19:14;;;;;;;12.80;2.08;;;;;;;;;;5036382;28;20017;-69
2022/07/08 00:21:43;;;;;;;6.47;1.58;;;;;;;;;;5036431;28;20053;-69
2022/07/08 00:24:10;;;;;;;8.43;1.70;;;;;;;;;;5036273;28;20025;-69
2022/07/08 00:26:35;;;;;;;9.52;1.73;;;;;;;;;;5036766;28;20039;-69
2022/07/08 00:29:00;;;;;;;9.20;1.77;;;;;;;;;;5036136;28;20108;-70
2022/07/08 00:31:25;;;;;;;14.60;1.70;;;;;;;;;;5036192;28;20352;-69
2022/07/08 00:33:51;;;;;;;13.40;1.77;;;;;;;;;;5036041;28;20262;-70
2022/07/08 00:36:16;;;;;;;9.07;1.75;;;;;;;;;;5036124;28;20304;-70
2022/07/08 00:38:41;;;;;;;11.75;1.90;;;;;;;;;;5036269;28;20059;-70
2022/07/08 00:41:06;;;;;;;9.85;1.40;;;;;;;;;;5018293;28;20025;-70
2022/07/08 00:43:38;;;;;;;12.93;1.83;;;;;;;;;;5036002;28;20116;-70
2022/07/08 00:46:04;;;;;;;6.53;1.58;;;;;;;;;;5035915;28;20250;-70
2022/07/08 00:48:29;;;;;;;6.65;1.50;;;;;;;;;;5035944;28;20021;-70
2022/07/08 00:50:59;;;;;;;11.73;2.17;;;;;;;;;;5035788;28;20025;-69
2022/07/08 00:53:24;;;;;;;10.73;1.30;;;;;;;;;;5036291;28;20513;-68
2022/07/08 00:55:49;;;;;;;8.25;1.42;;;;;;;;;;5035741;28;20049;-69
2022/07/08 00:58:15;;;;;;;8.63;2.03;;;;;;;;;;5035855;28;20493;-69
2022/07/08 01:00:40;;;;;;;10.07;1.48;;;;;;;;;;5035918;28;20025;-69
2022/07/08 01:03:06;;;;;;;11.75;1.75;;;;;;;;;;5035883;28;20029;-69
2022/07/08 01:05:31;;;;;;;9.20;1.83;;;;;;;;;;5035524;28;20037;-69
2022/07/08 01:07:56;;;;;;;13.63;2.10;;;;;;;;;;5035450;28;20029;-69
2022/07/08 01:10:22;;;;;;;11.52;2.25;;;;;;;;;;5034804;28;20290;-68
2022/07/08 01:12:47;;;;;;;9.35;1.85;;;;;;;;;;5035981;28;20048;-69
2022/07/08 01:15:13;;;;;;;7.78;1.80;;;;;;;;;;5035705;28;20382;-68
2022/07/08 01:17:43;;;;;;;10.43;2.00;;;;;;;;;;5035227;28;20030;-68
2022/07/08 01:20:10;;;;;;;9.27;1.65;;;;;;;;;;5035599;28;20048;-69
2022/07/08 01:22:35;;;;;;;13.32;2.00;;;;;;;;;;5035238;28;20033;-68
2022/07/08 01:25:00;;;;;;;9.20;1.63;;;;;;;;;;5035461;28;20025;-68
2022/07/08 01:27:25;;;;;;;10.60;2.00;;;;;;;;;;5035153;28;20271;-69
2022/07/08 01:29:51;;;;;;;12.13;1.63;;;;;;;;;;5035386;28;20029;-70
2022/07/08 01:32:16;;;;;;;12.43;1.73;;;;;;;;;;5035276;28;20061;-69
2022/07/08 01:34:41;;;;;;;12.20;1.70;;;;;;;;;;5034878;28;20033;-69
2022/07/08 01:37:06;;;;;;;9.18;1.70;;;;;;;;;;5034834;28;20259;-69
2022/07/08 01:39:32;;;;;;;13.03;1.77;;;;;;;;;;5034990;28;20474;-67
2022/07/08 01:41:57;;;;;;;11.60;1.80;;;;;;;;;;5035240;28;20796;-69
2022/07/08 01:44:22;;;;;;;8.40;2.30;;;;;;;;;;5034843;28;20790;-68
2022/07/08 01:46:47;;;;;;;13.03;1.97;;;;;;;;;;5034706;28;20752;-69
2022/07/08 01:49:14;;;;;;;10.47;1.90;;;;;;;;;;5034740;28;20282;-69
2022/07/08 01:51:40;;;;;;;10.52;2.10;;;;;;;;;;5034958;28;20258;-68
2022/07/08 01:54:05;;;;;;;8.90;1.90;;;;;;;;;;5034670;28;20032;-69
2022/07/08 01:56:30;;;;;;;10.90;1.97;;;;;;;;;;5034583;28;20032;-69
2022/07/08 01:58:55;;;;;;;5.57;1.90;;;;;;;;;;5034556;28;20259;-69
2022/07/08 02:01:21;;;;;;;10.47;1.83;;;;;;;;;;5035049;28;20266;-69
2022/07/08 02:03:46;;;;;;;13.83;1.70;;;;;;;;;;5034460;28;20262;-69
2022/07/08 02:06:11;;;;;;;13.95;2.33;;;;;;;;;;5034407;28;20259;-69
2022/07/08 02:08:36;;;;;;;10.43;2.03;;;;;;;;;;5034233;28;20056;-70
2022/07/08 02:13:45;;;;;;;9.68;1.80;;;;;;;;;;5034347;28;20313;-69
2022/07/08 02:16:11;;;;;;;11.20;1.77;;;;;;;;;;5034377;28;20030;-69
2022/07/08 02:18:36;;;;;;;12.10;1.77;;;;;;;;;;5034112;28;20316;-70
2022/07/08 02:21:01;;;;;;;7.83;1.60;;;;;;;;;;5033781;28;20091;-70
2022/07/08 02:23:27;;;;;;;11.27;1.98;;;;;;;;;;5033538;28;20258;-70
2022/07/08 02:25:52;;;;;;;7.80;1.80;;;;;;;;;;5034564;28;20064;-68
2022/07/08 02:28:17;;;;;;;6.53;1.60;;;;;;;;;;5034011;28;20267;-68
2022/07/08 02:30:42;;;;;;;11.77;2.00;;;;;;;;;;5034195;28;20287;-69
2022/07/08 02:33:07;;;;;;;11.85;1.92;;;;;;;;;;5033930;28;20270;-69
2022/07/08 02:35:33;;;;;;;11.80;2.07;;;;;;;;;;5016077;28;20033;-69
2022/07/08 02:37:58;;;;;;;16.67;2.53;;;;;;;;;;5033794;28;20254;-70
2022/07/08 02:40:23;;;;;;;9.33;1.80;;;;;;;;;;5033794;28;20259;-69
2022/07/08 02:42:48;;;;;;;7.50;2.10;;;;;;;;;;5034001;28;20274;-69
2022/07/08 02:45:14;;;;;;;14.90;2.13;;;;;;;;;;5033751;28;20255;-69
2022/07/08 02:47:39;;;;;;;10.73;2.22;;;;;;;;;;5033644;28;20291;-69
2022/07/08 02:50:05;;;;;;;9.07;2.03;;;;;;;;;;5033629;28;20029;-69
2022/07/08 02:52:31;;;;;;;13.50;2.13;;;;;;;;;;5034259;28;20108;-69
2022/07/08 02:54:56;;;;;;;11.52;2.00;;;;;;;;;;5033812;28;20136;-68
2022/07/08 02:57:21;;;;;;;9.43;2.13;;;;;;;;;;5033494;28;20037;-69
2022/07/08 02:59:46;;;;;;;9.20;1.90;;;;;;;;;;5033667;28;20258;-69
2022/07/08 03:02:12;;;;;;;10.80;1.80;;;;;;;;;;5033397;28;20258;-66
2022/07/08 03:04:37;;;;;;;13.07;2.03;;;;;;;;;;5033677;28;20029;-69
2022/07/08 03:07:02;;;;;;;10.03;1.80;;;;;;;;;;5033608;28;20266;-69
2022/07/08 03:09:27;;;;;;;15.83;2.07;;;;;;;;;;5031889;28;20278;-70
2022/07/08 03:11:52;;;;;;;10.98;2.22;;;;;;;;;;5032326;28;20273;-69
2022/07/08 03:14:18;;;;;;;13.30;1.90;;;;;;;;;;5033256;28;20025;-69
2022/07/08 03:16:43;;;;;;;15.43;2.13;;;;;;;;;;5033482;28;20264;-69
2022/07/08 03:19:08;;;;;;;12.82;2.53;;;;;;;;;;5033405;28;20017;-69
2022/07/08 03:21:33;;;;;;;14.57;2.43;;;;;;;;;;5033118;28;20028;-69
2022/07/08 03:23:59;;;;;;;11.20;2.20;;;;;;;;;;5033061;28;20258;-69
2022/07/08 03:26:24;;;;;;;14.83;2.80;;;;;;;;;;5033102;28;20262;-69
2022/07/08 03:28:49;;;;;;;9.38;2.55;;;;;;;;;;5032971;28;20297;-69
2022/07/08 03:31:14;;;;;;;12.02;2.47;;;;;;;;;;5033099;28;20064;-69
2022/07/08 03:33:40;;;;;;;10.65;2.35;;;;;;;;;;5036665;28;20091;-69
2022/07/08 03:36:06;;;;;;;16.30;2.87;;;;;;;;;;5039982;28;20025;-69
2022/07/08 03:38:31;;;;;;;13.40;2.50;;;;;;;;;;5039539;28;20251;-70
2022/07/08 03:43:41;;;;;;;19.48;3.30;;;;;;;;;;5039621;28;20036;-69
2022/07/08 03:46:07;;;;;;;13.35;2.65;;;;;;;;;;5039532;28;20108;-69
2022/07/08 03:48:32;;;;;;;14.93;2.83;;;;;;;;;;5039369;28;20112;-70
2022/07/08 03:50:57;;;;;;;21.40;3.03;;;;;;;;;;5039486;28;20037;-70
2022/07/08 03:53:23;;;;;;;17.00;2.70;;;;;;;;;;5039568;28;20269;-69
2022/07/08 03:55:48;;;;;;;18.50;2.63;;;;;;;;;;5039510;28;20271;-69
2022/07/08 03:58:14;;;;;;;14.40;2.97;;;;;;;;;;5039413;28;20269;-69
2022/07/08 04:00:40;;;;;;;13.55;2.40;;;;;;;;;;5039379;28;20025;-69
2022/07/08 04:03:05;;;;;;;16.70;2.70;;;;;;;;;;5039666;28;20436;-69
2022/07/08 04:05:30;;;;;;;19.08;2.60;;;;;;;;;;5040345;28;20108;-70
2022/07/08 04:07:56;;;;;;;13.83;2.40;;;;;;;;;;5039244;28;20025;-69
2022/07/08 04:10:21;;;;;;;16.40;2.57;;;;;;;;;;5039226;28;20305;-68
2022/07/08 04:12:46;;;;;;;17.40;3.22;;;;;;;;;;5039219;28;20258;-68
2022/07/08 04:15:13;;;;;;;15.30;3.05;;;;;;;;;;5039241;28;20017;-69
2022/07/08 04:17:38;;;;;;;15.20;2.47;;;;;;;;;;5039435;28;20379;-69
2022/07/08 04:20:04;;;;;;;14.48;2.60;;;;;;;;;;5039445;28;20029;-69
2022/07/08 04:22:30;;;;;;;11.75;2.38;;;;;;;;;;5039211;28;20025;-69
2022/07/08 04:24:55;;;;;;;6.90;2.40;;;;;;;;;;5039182;28;20032;-69
2022/07/08 04:27:20;;;;;;;12.83;2.37;;;;;;;;;;5039192;28;20032;-70
2022/07/08 04:29:45;;;;;;;15.32;2.58;;;;;;;;;;5039063;28;20278;-69
2022/07/08 04:32:11;;;;;;;10.53;2.30;;;;;;;;;;5039443;28;20037;-69
2022/07/08 04:34:36;;;;;;;13.18;2.50;;;;;;;;;;5039068;28;20366;-69
2022/07/08 04:37:01;;;;;;;15.83;2.57;;;;;;;;;;5039287;28;20036;-69
2022/07/08 04:39:26;;;;;;;13.32;2.13;;;;;;;;;;5039374;28;20251;-70
2022/07/08 04:41:52;;;;;;;15.43;2.80;;;;;;;;;;5038993;28;20509;-69
2022/07/08 04:44:17;;;;;;;14.57;2.45;;;;;;;;;;5038192;28;20778;-69
2022/07/08 04:46:42;;;;;;;12.70;2.47;;;;;;;;;;5036042;28;20077;-69
2022/07/08 04:49:08;;;;;;;17.40;2.88;;;;;;;;;;5037553;28;20025;-67
2022/07/08 04:51:33;;;;;;;13.32;2.65;;;;;;;;;;5039431;28;20032;-69
2022/07/08 04:53:58;;;;;;;14.00;2.67;;;;;;;;;;5037502;28;20030;-69
2022/07/08 04:56:24;;;;;;;18.63;2.93;;;;;;;;;;5036046;28;20259;-69
2022/07/08 04:58:49;;;;;;;16.10;2.83;;;;;;;;;;5035994;28;20382;-69
2022/07/08 05:01:17;;;;;;;16.27;2.53;;;;;;;;;;5035992;28;20025;-69
2022/07/08 05:03:43;;;;;;;18.88;2.63;;;;;;;;;;5035979;28;20385;-68
2022/07/08 05:06:08;;;;;;;31.67;2.97;;;;;;;;;;5035570;28;20064;-69
2022/07/08 05:08:33;;;;;;;20.10;2.60;;;;;;;;;;5035343;28;20305;-70
2022/07/08 05:10:58;;;;;;;19.77;2.53;;;;;;;;;;5035997;28;20302;-69
2022/07/08 05:13:24;;;;;;;16.53;2.57;;;;;;;;;;5035425;28;20257;-70
2022/07/08 05:15:49;;;;;;;18.88;2.70;;;;;;;;;;5017548;28;20270;-70
2022/07/08 05:18:14;;;;;;;14.32;3.35;;;;;;;;;;5035304;28;20470;-69
2022/07/08 05:20:39;;;;;;;20.48;2.95;;;;;;;;;;5035499;28;20060;-70
2022/07/08 05:23:05;;;;;;;16.50;2.80;;;;;;;;;;5035210;28;20036;-70
2022/07/08 05:25:30;;;;;;;17.35;3.05;;;;;;;;;;5035282;28;20085;-69
2022/07/08 05:27:55;;;;;;;18.47;2.70;;;;;;;;;;5017220;28;20048;-70
2022/07/08 05:30:20;;;;;;;15.40;2.70;;;;;;;;;;5034994;28;20287;-70
2022/07/08 05:32:49;;;;;;;12.13;2.83;;;;;;;;;;5034970;28;20262;-69
2022/07/08 05:35:14;;;;;;;20.05;2.88;;;;;;;;;;5035056;28;20394;-70
2022/07/08 05:37:40;;;;;;;19.33;3.23;;;;;;;;;;5035318;28;20025;-68
2022/07/08 05:40:07;;;;;;;18.42;3.10;;;;;;;;;;5034856;28;20382;-69
2022/07/08 05:42:32;;;;;;;15.57;2.63;;;;;;;;;;5034876;28;20025;-69
2022/07/08 05:44:57;;;;;;;17.93;2.83;;;;;;;;;;5035160;28;20462;-69
2022/07/08 05:47:22;;;;;;;15.93;2.97;;;;;;;;;;5034975;28;20628;-68
2022/07/08 05:49:48;;;;;;;20.20;3.00;;;;;;;;;;5034830;28;20627;-69
2022/07/08 05:52:13;;;;;;;20.10;3.17;;;;;;;;;;5034948;28;20087;-68
2022/07/08 05:54:39;;;;;;;27.40;3.53;;;;;;;;;;5034519;28;20488;-69
2022/07/08 05:57:04;;;;;;;14.07;2.72;;;;;;;;;;5034468;28;20087;-69
2022/07/08 05:59:31;;;;;;;22.38;3.33;;;;;;;;;;5034709;28;20025;-68
2022/07/08 06:01:56;;;;;;;17.92;2.50;;;;;;;;;;5034496;28;20036;-69
2022/07/08 06:04:21;;;;;;;11.45;2.55;;;;;;;;;;5034307;28;20398;-68
2022/07/08 06:06:47;;;;;;;24.10;3.63;;;;;;;;;;5034388;28;20036;-68
2022/07/08 06:09:12;;;;;;;23.33;3.25;;;;;;;;;;5034537;28;20026;-69
2022/07/08 06:11:38;;;;;;;23.30;3.30;;;;;;;;;;5034652;28;20026;-69
2022/07/08 06:14:03;;;;;;;19.92;3.10;;;;;;;;;;5034751;28;20076;-69
2022/07/08 06:16:28;;;;;;;18.08;2.83;;;;;;;;;;5034591;28;20071;-69
2022/07/08 06:18:53;;;;;;;16.63;3.80;;;;;;;;;;5016404;28;20497;-69
2022/07/08 06:21:19;;;;;;;18.83;3.37;;;;;;;;;;5034438;28;20108;-67
2022/07/08 06:23:44;;;;;;;15.73;3.57;;;;;;;;;;5034244;28;20295;-69
2022/07/08 06:26:10;;;;;;;33.47;3.43;;;;;;;;;;5034057;28;20262;-69
2022/07/08 06:28:36;;;;;;;21.65;3.80;;;;;;;;;;5033918;28;20346;-69
2022/07/08 06:31:01;;;;;;;22.63;3.27;;;;;;;;;;5034085;28;20060;-69
2022/07/08 06:33:26;;;;;;;22.67;3.33;;;;;;;;;;5033711;28;20366;-70
2022/07/08 06:35:51;;;;;;;19.83;3.20;;;;;;;;;;5034563;28;20033;-69
2022/07/08 06:38:17;;;;;;;22.10;3.50;;;;;;;;;;5033776;28;20270;-69
2022/07/08 06:40:42;;;;;;;18.63;2.95;;;;;;;;;;5033907;28;20259;-69
2022/07/08 06:43:07;;;;;;;17.47;3.10;;;;;;;;;;5033713;28;20095;-69
2022/07/08 06:45:33;;;;;;;19.52;3.05;;;;;;;;;;5034009;28;20259;-69
2022/07/08 06:48:01;;;;;;;18.95;3.05;;;;;;;;;;5033580;28;20025;-69
2022/07/08 06:50:27;;;;;;;17.55;3.08;;;;;;;;;;5033355;28;20453;-69
2022/07/08 06:52:53;;;;;;;17.40;2.92;;;;;;;;;;5034087;28;20121;-69
2022/07/08 06:55:18;;;;;;;19.10;3.28;;;;;;;;;;5033368;28;20039;-70
2022/07/08 06:57:43;;;;;;;16.95;3.10;;;;;;;;;;5033515;28;20497;-69
2022/07/08 07:00:09;;;;;;;21.38;3.28;;;;;;;;;;5015852;28;20471;-70
2022/07/08 07:02:34;;;;;;;18.10;3.28;;;;;;;;;;5033655;28;20068;-69
2022/07/08 07:05:00;;;;;;;18.15;3.20;;;;;;;;;;5033601;28;20053;-69
2022/07/08 07:07:25;;;;;;;15.20;2.83;;;;;;;;;;5032927;28;20505;-69
2022/07/08 07:09:50;;;;;;;16.88;3.42;;;;;;;;;;5033221;28;20029;-69
2022/07/08 07:12:16;;;;;;;18.37;2.90;;;;;;;;;;5033537;28;20109;-69
2022/07/08 07:14:41;;;;;;;12.73;2.85;;;;;;;;;;5033477;28;20301;-68
2022/07/08 07:17:06;;;;;;;18.40;2.80;;;;;;;;;;5033174;28;20116;-68
2022/07/08 07:19:32;;;;;;;16.43;2.83;;;;;;;;;;5033112;28;20266;-70
2022/07/08 07:21:57;;;;;;;15.40;2.92;;;;;;;;;;5033131;28;20270;-68
2022/07/08 07:24:22;;;;;;;16.23;3.00;;;;;;;;;;5016148;28;20018;-69
2022/07/08 07:26:48;;;;;;;16.70;2.90;;;;;;;;;;5032996;28;20267;-68
2022/07/08 07:29:13;;;;;;;16.60;2.90;;;;;;;;;;5033108;28;20025;-69
2022/07/08 07:31:38;;;;;;;12.18;2.42;;;;;;;;;;5033208;28;20271;-70
2022/07/08 07:34:03;;;;;;;17.23;2.83;;;;;;;;;;5033134;28;20025;-69
2022/07/08 07:36:29;;;;;;;19.60;3.00;;;;;;;;;;5033025;28;20365;-69
2022/07/08 07:38:55;;;;;;;20.15;3.83;;;;;;;;;;5033157;28;20258;-70
2022/07/08 07:41:20;;;;;;;15.35;3.00;;;;;;;;;;5032857;28;20033;-69
2022/07/08 07:43:45;;;;;;;16.20;2.80;;;;;;;;;;5033203;28;20025;-69
2022/07/08 07:46:10;;;;;;;17.85;2.75;;;;;;;;;;5033022;28;20029;-69
2022/07/08 07:48:36;;;;;;;16.38;2.92;;;;;;;;;;5032940;28;20379;-81
2022/07/08 07:51:01;;;;;;;16.23;3.22;;;;;;;;;;5037405;28;20112;-79
2022/07/08 07:53:27;;;;;;;13.00;2.58;;;;;;;;;;5040116;28;20387;-78
2022/07/08 07:55:52;;;;;;;9.60;2.30;;;;;;;;;;5040127;28;20048;-78
2022/07/08 08:33:46;;;;;;;14.45;2.45;;;;;;;;;;5078006;28;20039;-77
2022/07/08 08:43:38;;;;;;;12.77;2.50;;;;;;;;;;4886669;29;20040;-79
2022/07/08 09:03:33;;;;;;;;;;;;;;;;;;;;;
2022/07/08 09:13:03;;;;;;;;;;;;;;;;;;;;;
2022/07/08 09:16:32;;;;;;;;;;;;;;;;;;;;;
2022/07/08 09:39:46;;;;;;;7.80;1.77;;;;;;;;;;4920845;29;20080;-78
2022/07/08 09:59:43;;;;;;;6.32;1.65;;;;;;;;;;5389924;22;20048;-81
2022/07/08 10:05:33;;;;;;;6.60;1.45;;;;;;;;;;5057647;28;20104;-79
2022/07/08 10:15:21;;;;;;;7.40;1.63;;;;;;;;;;5021334;28;20044;-79
2022/07/08 10:24:44;;;;;;;7.32;1.58;;;;;;;;;;4937386;29;20398;-77
2022/07/08 10:27:23;;;;;;;8.07;1.67;;;;;;;;;;4936826;29;20102;-77
2022/07/08 10:30:13;;;;;;;7.97;1.60;;;;;;;;;;5057611;28;20045;-79
2022/07/08 10:32:48;;;;;;;8.48;2.08;;;;;;;;;;5032592;28;20036;-78
2022/07/08 11:15:34;;;;;;;5.68;1.40;;;;;;;;;;4820518;29;20109;-79
2022/07/08 11:21:18;;;;;;;7.15;1.65;;;;;;;;;;720631;26;21105;-78
2022/07/08 11:27:50;;;;;;;7.57;1.58;;;;;;;;;;4979100;28;20106;-78
2022/07/08 11:34:37;;;;;;;;;;;;;;;;;;;;;
2022/07/08 11:42:05;;;;;;;5.07;1.38;;;;;;;;;;5034945;28;20054;-78
2022/07/08 11:49:27;;;;;;;;;;;;;;;;;;;;;
2022/07/08 11:51:38;;;;;;;3.25;1.15;;;;;;;;;;4949634;28;20031;-78
2022/07/08 11:57:31;;;;;;;7.22;1.52;;;;;;;;;;4924244;28;20046;-78
2022/07/08 11:59:57;;;;;;;7.82;1.77;;;;;;;;;;4982630;28;20027;-78
2022/07/08 12:02:55;;;;;;;9.18;1.60;;;;;;;;;;5020435;28;20037;-80
2022/07/08 12:11:40;;;;;;;6.82;1.80;;;;;;;;;;5037242;28;20450;-77
2022/07/08 12:14:43;;;;;;;8.10;1.67;;;;;;;;;;5038469;28;20064;-77
2022/07/08 12:20:38;;;;;;;5.68;1.80;;;;;;;;;;4925824;28;20046;-79
2022/07/08 12:23:04;;;;;;;9.98;2.25;;;;;;;;;;5022965;28;20036;-78
2022/07/08 12:25:49;;;;;;;6.15;1.70;;;;;;;;;;5019871;28;20112;-76
2022/07/08 12:28:21;;;;;;;6.78;1.90;;;;;;;;;;5018522;28;20076;-78
2022/07/08 12:30:46;;;;;;;10.82;2.10;;;;;;;;;;5018252;28;20105;-76
2022/07/08 12:33:24;;;;;;;4.93;1.52;;;;;;;;;;5017341;28;20064;-76
2022/07/08 12:35:51;;;;;;;7.72;1.77;;;;;;;;;;4999226;28;20108;-76
2022/07/08 12:38:23;;;;;;;7.00;1.88;;;;;;;;;;5015942;28;20121;-77
2022/07/08 12:40:48;;;;;;;14.73;2.20;;;;;;;;;;5017247;28;20101;-76
2022/07/08 12:43:14;;;;;;;4.50;1.75;;;;;;;;;;5016718;28;20084;-76
2022/07/08 12:45:40;;;;;;;4.80;1.63;;;;;;;;;;5016885;28;20060;-76
2022/07/08 12:48:06;;;;;;;6.63;1.92;;;;;;;;;;5017084;28;20061;-77
2022/07/08 12:50:33;;;;;;;7.75;1.80;;;;;;;;;;5016996;28;20109;-77
2022/07/08 12:53:00;;;;;;;12.60;2.13;;;;;;;;;;5016431;28;20022;-76
2022/07/08 12:55:25;;;;;;;7.45;1.50;;;;;;;;;;5016533;28;20340;-76
2022/07/08 12:57:51;;;;;;;6.55;1.95;;;;;;;;;;5015016;28;20022;-75
2022/07/08 13:00:18;;;;;;;5.22;1.42;;;;;;;;;;5016340;28;20527;-76
2022/07/08 13:02:43;;;;;;;9.52;2.00;;;;;;;;;;4998628;28;20503;-75
2022/07/08 13:05:08;;;;;;;5.85;1.73;;;;;;;;;;4998489;28;20033;-76
2022/07/08 13:07:34;;;;;;;5.65;1.52;;;;;;;;;;5016132;28;20029;-76
2022/07/08 13:09:59;;;;;;;9.55;1.55;;;;;;;;;;5016244;28;20037;-76
2022/07/08 13:12:25;;;;;;;7.70;1.50;;;;;;;;;;5016359;28;20034;-77
2022/07/08 13:14:51;;;;;;;5.60;1.70;;;;;;;;;;5016337;28;20255;-76
2022/07/08 13:17:16;;;;;;;6.43;1.75;;;;;;;;;;5015698;28;20426;-76
2022/07/08 13:19:42;;;;;;;7.80;1.70;;;;;;;;;;5015641;28;20021;-76
2022/07/08 13:22:08;;;;;;;3.85;1.90;;;;;;;;;;4998379;28;20058;-77
2022/07/08 13:24:34;;;;;;;6.22;1.70;;;;;;;;;;5016290;28;20032;-76
2022/07/08 13:26:59;;;;;;;6.68;1.70;;;;;;;;;;4998225;28;20022;-75
2022/07/08 13:29:24;;;;;;;5.82;1.75;;;;;;;;;;5015857;28;20041;-76
2022/07/08 13:31:50;;;;;;;11.43;1.65;;;;;;;;;;4998408;28;20029;-77
2022/07/08 13:34:19;;;;;;;7.32;1.83;;;;;;;;;;5016079;28;20022;-76
2022/07/08 13:36:44;;;;;;;5.68;1.50;;;;;;;;;;5016103;28;20105;-76
2022/07/08 13:39:09;;;;;;;5.15;1.40;;;;;;;;;;5015879;28;20107;-76
2022/07/08 13:41:35;;;;;;;3.50;1.40;;;;;;;;;;4998275;28;20034;-77
2022/07/08 13:44:00;;;;;;;3.90;1.30;;;;;;;;;;5015638;28;20263;-77
2022/07/08 13:46:27;;;;;;;9.43;1.55;;;;;;;;;;5015775;28;20263;-76
2022/07/08 13:48:52;;;;;;;6.25;1.70;;;;;;;;;;5015644;28;20104;-76
2022/07/08 13:51:18;;;;;;;8.40;2.03;;;;;;;;;;5015445;28;20558;-76
2022/07/08 13:53:43;;;;;;;6.33;1.77;;;;;;;;;;5015574;28;20438;-76
2022/07/08 13:56:08;;;;;;;4.33;1.30;;;;;;;;;;5015796;28;20275;-77
2022/07/08 13:58:33;;;;;;;4.90;1.40;;;;;;;;;;5015398;28;20267;-76
2022/07/08 14:01:00;;;;;;;8.43;1.67;;;;;;;;;;5014595;28;20022;-76
2022/07/08 14:03:26;;;;;;;11.40;1.73;;;;;;;;;;4998018;28;20092;-76
2022/07/08 14:05:51;;;;;;;7.85;1.42;;;;;;;;;;5015331;28;20026;-76
2022/07/08 14:08:16;;;;;;;8.48;1.60;;;;;;;;;;5015451;28;20407;-77
2022/07/08 14:10:41;;;;;;;7.72;1.73;;;;;;;;;;5015626;28;20073;-76
2022/07/08 14:13:07;;;;;;;8.27;1.58;;;;;;;;;;5015408;28;20030;-77
2022/07/08 14:15:32;;;;;;;6.95;1.52;;;;;;;;;;5015284;28;20041;-76
2022/07/08 14:17:57;;;;;;;6.80;1.90;;;;;;;;;;5015969;28;20017;-77
2022/07/08 14:20:22;;;;;;;6.22;1.70;;;;;;;;;;4997659;28;20119;-77
2022/07/08 14:22:48;;;;;;;5.25;1.60;;;;;;;;;;5018837;28;20475;-77
2022/07/08 14:25:14;;;;;;;5.68;1.25;;;;;;;;;;5001595;28;20029;-76
2022/07/08 14:27:39;;;;;;;6.13;1.55;;;;;;;;;;5018296;28;20026;-75
2022/07/08 14:30:05;;;;;;;5.80;1.60;;;;;;;;;;5019217;28;20061;-77
2022/07/08 14:32:30;;;;;;;4.35;1.77;;;;;;;;;;5020495;28;20298;-77
2022/07/08 14:34:55;;;;;;;5.77;1.33;;;;;;;;;;5019732;28;20064;-77
2022/07/08 14:37:20;;;;;;;5.07;1.53;;;;;;;;;;5001935;28;20274;-77
2022/07/08 14:39:48;;;;;;;3.80;1.50;;;;;;;;;;5018205;28;20281;-77
2022/07/08 14:42:13;;;;;;;7.10;1.67;;;;;;;;;;5019075;28;20262;-76
2022/07/08 14:44:38;;;;;;;4.07;1.43;;;;;;;;;;5000502;28;20030;-76
2022/07/08 14:47:04;;;;;;;5.87;1.50;;;;;;;;;;5018550;28;20267;-77
2022/07/08 14:49:29;;;;;;;7.28;1.60;;;;;;;;;;5018482;28;20290;-77
2022/07/08 14:51:55;;;;;;;8.88;1.70;;;;;;;;;;5019405;28;20085;-76
2022/07/08 14:54:20;;;;;;;4.35;1.35;;;;;;;;;;5018765;28;20030;-77
2022/07/08 14:56:46;;;;;;;6.30;2.00;;;;;;;;;;5020767;28;20022;-77
2022/07/08 14:59:11;;;;;;;4.22;1.42;;;;;;;;;;5003335;28;20018;-78
2022/07/08 15:01:36;;;;;;;3.67;1.27;;;;;;;;;;5020432;28;20044;-76
2022/07/08 15:04:02;;;;;;;6.53;1.42;;;;;;;;;;5019722;28;20338;-76
2022/07/08 15:06:27;;;;;;;5.90;1.50;;;;;;;;;;5020896;28;20021;-77
2022/07/08 15:08:53;;;;;;;3.88;1.30;;;;;;;;;;5018772;28;20033;-77
2022/07/08 15:11:22;;;;;;;2.38;1.02;;;;;;;;;;5015409;28;20029;-76
2022/07/08 15:13:47;;;;;;;6.15;1.40;;;;;;;;;;4997430;28;20029;-77
2022/07/08 15:16:12;;;;;;;4.30;1.37;;;;;;;;;;5014711;28;20026;-77
2022/07/08 15:18:37;;;;;;;8.25;1.58;;;;;;;;;;4997011;28;20264;-76
2022/07/08 15:21:03;;;;;;;5.23;1.30;;;;;;;;;;5015318;28;20483;-77
2022/07/08 15:23:28;;;;;;;5.28;1.35;;;;;;;;;;5014506;28;20802;-76
2022/07/08 15:25:54;;;;;;;6.55;1.40;;;;;;;;;;5015022;28;20041;-76
2022/07/08 15:28:20;;;;;;;3.78;1.40;;;;;;;;;;5014909;28;20022;-78
2022/07/08 15:30:48;;;;;;;8.77;1.50;;;;;;;;;;4996585;28;20022;-78
2022/07/08 15:33:13;;;;;;;9.00;1.60;;;;;;;;;;5014076;28;20034;-77
2022/07/08 15:35:39;;;;;;;6.85;1.50;;;;;;;;;;5014174;28;20033;-78
2022/07/08 15:38:04;;;;;;;7.70;1.42;;;;;;;;;;5013494;28;20030;-77
2022/07/08 15:40:30;;;;;;;7.55;1.40;;;;;;;;;;5013574;28;20025;-77
2022/07/08 15:42:55;;;;;;;5.97;1.33;;;;;;;;;;5013836;28;20395;-77
2022/07/08 15:45:25;;;;;;;4.13;1.30;;;;;;;;;;4996048;28;20088;-78
2022/07/08 15:47:50;;;;;;;6.13;1.50;;;;;;;;;;5014004;28;20026;-77
2022/07/08 15:50:16;;;;;;;5.57;1.50;;;;;;;;;;5014596;28;20390;-76
2022/07/08 15:52:41;;;;;;;5.20;1.48;;;;;;;;;;5014135;28;20487;-77
2022/07/08 15:55:07;;;;;;;4.45;1.58;;;;;;;;;;5014279;28;20032;-77
2022/07/08 15:57:34;;;;;;;6.18;1.40;;;;;;;;;;4996536;28;20080;-77
2022/07/08 16:00:01;;;;;;;5.28;1.35;;;;;;;;;;5014159;28;20014;-77
2022/07/08 16:02:26;;;;;;;4.65;1.20;;;;;;;;;;5013731;28;20025;-76
2022/07/08 16:04:51;;;;;;;6.97;1.33;;;;;;;;;;5013767;28;20025;-77
2022/07/08 16:07:16;;;;;;;5.30;1.47;;;;;;;;;;5013697;28;20342;-77
2022/07/08 16:09:42;;;;;;;6.63;1.37;;;;;;;;;;5014144;28;20337;-76
2022/07/08 16:12:07;;;;;;;4.93;1.30;;;;;;;;;;4996375;28;20260;-77
2022/07/08 16:14:32;;;;;;;5.85;1.23;;;;;;;;;;4996172;28;20259;-77
2022/07/08 16:16:58;;;;;;;5.88;1.40;;;;;;;;;;5014249;28;20022;-77
2022/07/08 16:19:23;;;;;;;7.47;1.45;;;;;;;;;;5014086;28;20022;-76
2022/07/08 16:21:48;;;;;;;4.60;1.40;;;;;;;;;;5013414;28;20064;-77
2022/07/08 16:24:14;;;;;;;6.65;1.50;;;;;;;;;;4996112;28;20080;-77
2022/07/08 16:26:39;;;;;;;5.10;1.48;;;;;;;;;;5013800;28;20030;-77
2022/07/08 16:29:04;;;;;;;5.40;1.50;;;;;;;;;;5013307;28;20499;-77
2022/07/08 16:31:30;;;;;;;5.40;1.40;;;;;;;;;;5013719;28;20025;-77
2022/07/08 16:33:55;;;;;;;5.72;1.73;;;;;;;;;;5013920;28;20518;-77
2022/07/08 16:36:21;;;;;;;4.25;1.45;;;;;;;;;;5013602;28;20053;-76
2022/07/08 16:38:47;;;;;;;6.00;1.55;;;;;;;;;;5014593;28;20080;-77
2022/07/08 16:41:12;;;;;;;5.45;1.70;;;;;;;;;;5014559;28;20427;-77
2022/07/08 16:43:37;;;;;;;5.60;1.43;;;;;;;;;;5017345;28;20022;-77
2022/07/08 16:46:03;;;;;;;7.40;1.40;;;;;;;;;;5017727;28;20267;-77
2022/07/08 16:48:28;;;;;;;7.10;1.63;;;;;;;;;;5017166;28;20247;-77
2022/07/08 16:50:53;;;;;;;4.87;1.27;;;;;;;;;;5017491;28;20479;-77
2022/07/08 16:53:18;;;;;;;8.23;1.40;;;;;;;;;;5017685;28;20605;-77
2022/07/08 16:55:44;;;;;;;5.83;1.37;;;;;;;;;;5016974;28;20514;-77
2022/07/08 16:58:09;;;;;;;5.38;1.30;;;;;;;;;;5000241;28;20632;-76
2022/07/08 17:00:34;;;;;;;3.55;1.42;;;;;;;;;;5017931;28;20030;-77
2022/07/08 17:03:02;;;;;;;5.15;1.50;;;;;;;;;;5018459;28;20057;-77
2022/07/08 17:05:27;;;;;;;3.88;1.50;;;;;;;;;;5017510;28;20034;-77
2022/07/08 17:07:52;;;;;;;9.85;1.60;;;;;;;;;;5017807;28;20360;-76
2022/07/08 17:10:17;;;;;;;6.53;1.73;;;;;;;;;;5017384;28;20038;-77
2022/07/08 17:12:43;;;;;;;6.82;1.33;;;;;;;;;;5017685;28;20272;-77
2022/07/08 17:15:09;;;;;;;7.43;1.90;;;;;;;;;;5000010;28;20071;-76
2022/07/08 17:17:35;;;;;;;6.78;1.63;;;;;;;;;;5017507;28;20069;-76
2022/07/08 17:20:01;;;;;;;3.10;1.23;;;;;;;;;;5018160;28;20021;-76
2022/07/08 17:22:27;;;;;;;7.53;1.75;;;;;;;;;;5018484;28;20425;-77
2022/07/08 17:24:52;;;;;;;4.22;1.40;;;;;;;;;;5018923;28;20114;-77
2022/07/08 17:27:17;;;;;;;6.50;1.83;;;;;;;;;;5019187;28;20120;-77
2022/07/08 17:29:48;;;;;;;7.57;1.53;;;;;;;;;;5019018;28;20287;-76
2022/07/08 17:32:28;;;;;;;4.43;1.27;;;;;;;;;;5019015;28;20255;-76
2022/07/08 17:34:55;;;;;;;5.70;1.40;;;;;;;;;;5018160;28;20117;-77
2022/07/08 17:37:21;;;;;;;8.82;1.83;;;;;;;;;;5018113;28;20018;-77
2022/07/08 17:39:48;;;;;;;5.07;1.35;;;;;;;;;;5018994;28;20022;-77
2022/07/08 17:42:14;;;;;;;2.83;1.25;;;;;;;;;;5019004;28;20033;-76
2022/07/08 17:44:40;;;;;;;3.42;1.38;;;;;;;;;;5018124;28;20540;-78
2022/07/08 17:47:07;;;;;;;7.80;1.45;;;;;;;;;;5017457;28;20021;-77
2022/07/08 17:49:32;;;;;;;6.05;1.50;;;;;;;;;;5017236;28;20026;-78
2022/07/08 17:51:58;;;;;;;4.70;1.33;;;;;;;;;;5017073;28;20029;-77
2022/07/08 17:54:25;;;;;;;5.55;1.42;;;;;;;;;;5017964;28;20022;-77
2022/07/08 17:56:51;;;;;;;5.47;1.55;;;;;;;;;;5016148;28;20029;-75
2022/07/08 17:59:16;;;;;;;7.25;1.95;;;;;;;;;;5017790;28;20463;-77